createdAt,value
2017-05-18T00:01:01.957Z,45.90
2017-05-18T00:03:30.906Z,45.90
2017-05-18T00:06:00.621Z,45.90
2017-05-18T00:08:29.493Z,45.90
2017-05-18T00:10:59.159Z,45.80
2017-05-18T00:13:28.055Z,45.90
2017-05-18T00:15:56.967Z,45.80
2017-05-18T00:18:25.889Z,46.10
2017-05-18T00:20:55.519Z,46.00
2017-05-18T00:23:24.417Z,45.90
2017-05-18T00:25:53.345Z,46.00
2017-05-18T00:28:22.242Z,46.00
2017-05-18T00:30:51.263Z,46.10
2017-05-18T00:33:20.914Z,46.20
2017-05-18T00:35:49.802Z,46.30
2017-05-18T00:38:18.706Z,46.30
2017-05-18T00:40:47.662Z,46.40
2017-05-18T00:43:16.574Z,46.50
2017-05-18T00:45:46.846Z,46.60
2017-05-18T00:48:15.746Z,46.60
2017-05-18T00:50:44.651Z,46.80
2017-05-18T00:53:13.571Z,47.00
2017-05-18T00:55:42.441Z,47.10
2017-05-18T00:58:11.335Z,47.30
2017-05-18T01:00:40.262Z,47.50
2017-05-18T01:03:09.166Z,47.60
2017-05-18T01:05:38.054Z,47.80
2017-05-18T01:08:06.977Z,47.70
2017-05-18T01:10:35.866Z,47.80
2017-05-18T01:13:04.834Z,47.90
2017-05-18T01:15:33.781Z,47.90
2017-05-18T01:18:03.423Z,47.90
2017-05-18T01:20:32.334Z,48.00
2017-05-18T01:23:01.258Z,48.10
2017-05-18T01:25:30.163Z,48.20
2017-05-18T01:27:59.803Z,48.20
2017-05-18T01:30:28.714Z,48.30
2017-05-18T01:32:57.999Z,48.50
2017-05-18T01:35:26.903Z,48.40
2017-05-18T01:37:55.827Z,48.50
2017-05-18T01:40:24.713Z,48.50
2017-05-18T01:42:53.624Z,48.40
2017-05-18T01:45:22.529Z,48.40
2017-05-18T01:47:51.448Z,48.60
2017-05-18T01:50:20.346Z,48.60
2017-05-18T01:52:49.971Z,48.60
2017-05-18T01:55:18.955Z,48.80
2017-05-18T01:57:47.888Z,48.90
2017-05-18T02:00:16.791Z,48.90
2017-05-18T02:02:45.682Z,49.10
2017-05-18T02:05:14.618Z,49.10
2017-05-18T02:07:43.513Z,49.10
2017-05-18T02:10:12.402Z,49.10
2017-05-18T02:12:41.330Z,49.10
2017-05-18T02:15:10.234Z,49.20
2017-05-18T02:17:39.146Z,49.20
2017-05-18T02:20:08.142Z,49.20
2017-05-18T02:22:37.031Z,49.30
2017-05-18T02:25:05.931Z,49.30
2017-05-18T02:27:34.883Z,49.30
2017-05-18T02:30:03.827Z,49.40
2017-05-18T02:32:32.719Z,49.50
2017-05-18T02:35:01.645Z,49.50
2017-05-18T02:37:31.295Z,49.60
2017-05-18T02:40:00.210Z,49.80
2017-05-18T02:42:29.129Z,49.50
2017-05-18T02:44:58.794Z,49.40
2017-05-18T02:47:27.710Z,49.50
2017-05-18T02:49:56.627Z,49.50
2017-05-18T02:52:25.563Z,49.60
2017-05-18T02:54:54.499Z,49.70
2017-05-18T02:57:23.398Z,49.70
2017-05-18T02:59:52.287Z,49.80
2017-05-18T03:02:21.212Z,50.00
2017-05-18T03:04:50.255Z,50.10
2017-05-18T03:07:19.212Z,50.00
2017-05-18T03:09:48.150Z,50.10
2017-05-18T03:12:17.014Z,50.30
2017-05-18T03:14:45.924Z,50.40
2017-05-18T03:17:14.819Z,50.70
2017-05-18T03:19:43.754Z,50.90
2017-05-18T03:22:12.670Z,51.10
2017-05-18T03:24:41.565Z,51.30
2017-05-18T03:27:10.490Z,51.60
2017-05-18T03:29:39.382Z,51.60
2017-05-18T03:32:08.270Z,51.50
2017-05-18T03:34:37.189Z,51.20
2017-05-18T03:37:06.829Z,51.20
2017-05-18T03:39:35.725Z,50.70
2017-05-18T03:42:04.698Z,50.60
2017-05-18T03:44:33.586Z,49.80
2017-05-18T03:47:02.511Z,50.00
2017-05-18T03:49:31.426Z,50.20
2017-05-18T03:52:00.322Z,50.50
2017-05-18T03:54:29.249Z,50.40
2017-05-18T03:56:58.882Z,50.40
2017-05-18T03:59:27.794Z,50.60
2017-05-18T04:01:56.715Z,51.00
2017-05-18T04:04:25.592Z,51.10
2017-05-18T04:06:54.488Z,51.30
2017-05-18T04:09:23.410Z,51.40
2017-05-18T04:11:52.314Z,50.10
2017-05-18T04:14:21.204Z,51.40
2017-05-18T04:16:50.128Z,52.20
2017-05-18T04:19:19.023Z,51.90
2017-05-18T04:21:47.933Z,51.60
2017-05-18T04:24:16.858Z,51.90
2017-05-18T04:26:45.773Z,52.00
2017-05-18T04:29:14.705Z,52.20
2017-05-18T04:31:43.630Z,50.90
2017-05-18T04:34:12.542Z,51.60
2017-05-18T04:36:41.466Z,51.10
2017-05-18T04:39:10.358Z,50.50
2017-05-18T04:41:39.259Z,51.70
2017-05-18T04:44:08.186Z,50.90
2017-05-18T04:46:37.088Z,51.00
2017-05-18T04:49:05.979Z,51.70
2017-05-18T04:51:34.900Z,51.10
2017-05-18T04:54:04.612Z,51.50
2017-05-18T04:56:33.495Z,50.60
2017-05-18T04:59:03.135Z,49.90
2017-05-18T05:01:32.060Z,50.50
2017-05-18T05:04:00.995Z,50.20
2017-05-18T05:06:29.898Z,50.40
2017-05-18T05:08:58.873Z,50.90
2017-05-18T05:11:27.778Z,51.00
2017-05-18T05:13:56.691Z,50.70
2017-05-18T05:16:25.609Z,50.20
2017-05-18T05:18:54.518Z,50.10
2017-05-18T05:21:24.147Z,49.70
2017-05-18T05:23:53.076Z,51.00
2017-05-18T05:26:21.981Z,51.10
2017-05-18T05:28:52.496Z,51.40
2017-05-18T05:31:21.421Z,51.20
2017-05-18T05:33:51.714Z,50.90
2017-05-18T05:36:21.346Z,51.00
2017-05-18T05:38:50.238Z,51.30
2017-05-18T05:41:19.157Z,51.00
2017-05-18T05:43:48.107Z,50.70
2017-05-18T05:46:17.035Z,51.00
2017-05-18T05:48:46.670Z,51.20
2017-05-18T05:51:15.587Z,51.40
2017-05-18T05:53:45.228Z,51.20
2017-05-18T05:56:14.150Z,52.10
2017-05-18T05:58:43.064Z,51.60
2017-05-18T06:01:11.991Z,51.70
2017-05-18T06:03:40.910Z,52.10
2017-05-18T06:06:09.836Z,52.30
2017-05-18T06:08:38.795Z,52.50
2017-05-18T06:11:07.716Z,52.80
2017-05-18T06:13:36.642Z,53.30
2017-05-18T06:16:05.546Z,53.00
2017-05-18T06:18:34.521Z,53.20
2017-05-18T06:21:04.177Z,52.60
2017-05-18T06:23:33.506Z,52.80
2017-05-18T06:26:03.243Z,51.80
2017-05-18T06:28:32.927Z,52.50
2017-05-18T06:31:02.762Z,53.00
2017-05-18T06:33:31.689Z,52.40
2017-05-18T06:36:00.601Z,52.90
2017-05-18T06:38:29.504Z,53.20
2017-05-18T06:40:58.391Z,53.60
2017-05-18T06:43:27.319Z,53.60
2017-05-18T06:45:56.950Z,53.30
2017-05-18T06:48:25.862Z,52.70
2017-05-18T06:50:54.821Z,52.70
2017-05-18T06:53:23.722Z,51.80
2017-05-18T06:55:53.368Z,51.80
2017-05-18T06:58:22.367Z,52.00
2017-05-18T07:00:51.266Z,51.60
2017-05-18T07:03:20.230Z,51.00
2017-05-18T07:05:49.142Z,51.10
2017-05-18T07:08:18.051Z,51.00
2017-05-18T07:10:46.966Z,50.50
2017-05-18T07:13:15.859Z,51.70
2017-05-18T07:15:44.779Z,53.40
2017-05-18T07:18:13.668Z,54.20
2017-05-18T07:20:43.311Z,55.80
2017-05-18T07:23:12.254Z,57.00
2017-05-18T07:25:41.915Z,57.50
2017-05-18T07:28:10.820Z,57.60
2017-05-18T07:30:39.757Z,58.10
2017-05-18T07:33:08.652Z,58.00
2017-05-18T07:35:38.298Z,57.70
2017-05-18T07:38:07.198Z,57.70
2017-05-18T07:40:36.098Z,57.30
2017-05-18T07:43:05.026Z,56.50
2017-05-18T07:45:34.672Z,56.50
2017-05-18T07:48:03.596Z,56.50
2017-05-18T07:50:32.554Z,55.40
2017-05-18T07:53:01.450Z,55.40
2017-05-18T07:55:30.339Z,55.60
2017-05-18T07:57:59.307Z,54.90
2017-05-18T08:00:28.198Z,54.80
2017-05-18T08:02:57.078Z,55.40
2017-05-18T08:05:25.977Z,54.90
2017-05-18T08:07:54.893Z,53.90
2017-05-18T08:10:23.822Z,54.30
2017-05-18T08:12:53.459Z,54.60
2017-05-18T08:15:22.388Z,54.70
2017-05-18T08:17:51.397Z,54.20
2017-05-18T08:20:20.293Z,51.70
2017-05-18T08:22:49.179Z,50.60
2017-05-18T08:25:18.078Z,50.50
2017-05-18T08:27:47.003Z,50.50
2017-05-18T08:30:15.902Z,50.40
2017-05-18T08:32:44.814Z,51.50
2017-05-18T08:35:13.730Z,52.60
2017-05-18T08:37:42.626Z,53.90
2017-05-18T08:40:11.534Z,54.50
2017-05-18T08:42:41.199Z,54.60
2017-05-18T08:45:10.171Z,54.30
2017-05-18T08:47:39.062Z,54.10
2017-05-18T08:50:07.990Z,52.90
2017-05-18T08:52:36.966Z,52.90
2017-05-18T08:55:05.858Z,52.20
2017-05-18T08:57:34.862Z,51.80
2017-05-18T09:00:03.773Z,51.10
2017-05-18T09:02:32.640Z,50.40
2017-05-18T09:05:01.566Z,50.40
2017-05-18T09:07:31.205Z,50.40
2017-05-18T09:10:00.122Z,50.00
2017-05-18T09:12:29.147Z,50.10
2017-05-18T09:14:58.794Z,49.40
2017-05-18T09:17:27.742Z,48.80
2017-05-18T09:19:56.649Z,49.00
2017-05-18T09:22:26.384Z,50.10
2017-05-18T09:24:55.394Z,48.80
2017-05-18T09:27:24.297Z,47.80
2017-05-18T09:29:53.244Z,46.30
2017-05-18T09:32:22.187Z,45.60
2017-05-18T09:34:51.070Z,45.30
2017-05-18T09:37:19.973Z,44.30
2017-05-18T09:39:48.858Z,46.20
2017-05-18T09:42:17.748Z,47.70
2017-05-18T09:44:46.734Z,50.60
2017-05-18T09:47:15.639Z,52.00
2017-05-18T09:49:44.538Z,52.70
2017-05-18T09:52:14.161Z,51.70
2017-05-18T09:54:43.857Z,51.50
2017-05-18T09:57:12.814Z,50.40
2017-05-18T09:59:41.767Z,48.10
2017-05-18T10:02:10.778Z,44.50
2017-05-18T10:04:39.701Z,44.50
2017-05-18T10:07:08.594Z,43.40
2017-05-18T10:09:37.486Z,43.10
2017-05-18T10:12:06.421Z,44.20
2017-05-18T10:14:36.046Z,43.20
2017-05-18T10:17:05.431Z,42.90
2017-05-18T10:19:35.224Z,42.40
2017-05-18T10:22:04.903Z,38.60
2017-05-18T10:24:33.813Z,34.10
2017-05-18T10:27:02.789Z,31.70
2017-05-18T10:29:31.834Z,30.60
2017-05-18T10:32:00.722Z,32.20
2017-05-18T10:34:29.647Z,32.80
2017-05-18T10:36:58.646Z,33.50
2017-05-18T10:39:27.545Z,33.90
2017-05-18T10:41:56.450Z,33.90
2017-05-18T10:44:25.347Z,34.60
2017-05-18T10:46:54.287Z,35.10
2017-05-18T10:49:23.907Z,35.00
2017-05-18T10:51:52.810Z,34.90
2017-05-18T10:54:21.718Z,35.60
2017-05-18T10:56:50.635Z,38.10
2017-05-18T10:59:20.279Z,38.60
2017-05-18T11:01:49.203Z,39.30
2017-05-18T11:04:18.094Z,39.80
2017-05-18T11:06:47.049Z,40.10
2017-05-18T11:09:16.340Z,41.70
2017-05-18T11:11:45.249Z,42.10
2017-05-18T11:14:14.142Z,41.20
2017-05-18T11:16:43.546Z,40.40
2017-05-18T11:19:13.326Z,38.90
2017-05-18T11:21:42.979Z,37.10
2017-05-18T11:24:11.892Z,35.00
2017-05-18T11:26:40.765Z,32.90
2017-05-18T11:29:09.691Z,30.10
2017-05-18T11:31:39.451Z,27.40
2017-05-18T11:34:08.469Z,26.60
2017-05-18T11:36:37.449Z,26.40
2017-05-18T11:39:06.367Z,26.90
2017-05-18T11:41:35.241Z,26.60
2017-05-18T11:44:04.172Z,25.90
2017-05-18T11:46:33.831Z,25.90
2017-05-18T11:49:02.726Z,26.30
2017-05-18T11:51:31.643Z,27.60
2017-05-18T11:54:00.568Z,29.50
2017-05-18T11:56:30.221Z,31.10
2017-05-18T11:58:59.826Z,33.10
2017-05-18T12:01:28.740Z,34.30
2017-05-18T12:03:57.731Z,35.30
2017-05-18T12:06:26.683Z,36.40
2017-05-18T12:08:55.649Z,37.90
2017-05-18T12:11:25.331Z,40.10
2017-05-18T12:13:54.308Z,46.10
2017-05-18T12:16:23.734Z,50.80
2017-05-18T12:18:53.510Z,53.80
2017-05-18T12:21:22.457Z,58.70
2017-05-18T12:23:52.087Z,61.80
2017-05-18T12:26:20.985Z,67.10
2017-05-18T12:28:49.947Z,69.80
2017-05-18T12:31:18.858Z,72.40
2017-05-18T12:33:47.796Z,74.80
2017-05-18T12:36:16.724Z,78.40
2017-05-18T12:38:46.356Z,82.50
2017-05-18T12:41:15.343Z,83.10
2017-05-18T12:43:44.287Z,84.00
2017-05-18T12:46:13.246Z,87.20
2017-05-18T12:48:42.302Z,87.30
2017-05-18T12:51:11.930Z,85.40
2017-05-18T12:53:43.671Z,82.90
2017-05-18T12:56:13.364Z,82.80
2017-05-18T12:58:42.522Z,82.50
2017-05-18T13:01:11.663Z,80.50
2017-05-18T13:03:40.727Z,80.60
2017-05-18T13:06:10.392Z,77.40
2017-05-18T13:08:39.294Z,75.50
2017-05-18T13:11:08.205Z,76.20
2017-05-18T13:13:37.116Z,75.30
2017-05-18T13:16:06.797Z,70.90
2017-05-18T13:18:35.769Z,72.20
2017-05-18T13:21:04.828Z,72.80
2017-05-18T13:23:33.727Z,72.10
2017-05-18T13:26:02.913Z,72.60
2017-05-18T13:28:32.530Z,72.10
2017-05-18T13:31:01.466Z,73.00
2017-05-18T13:33:31.108Z,72.60
2017-05-18T13:36:00.030Z,74.60
2017-05-18T13:38:28.943Z,71.00
2017-05-18T13:40:57.883Z,71.90
2017-05-18T13:43:26.825Z,71.50
2017-05-18T13:45:55.714Z,73.40
2017-05-18T13:48:24.663Z,75.40
2017-05-18T13:50:53.529Z,74.40
2017-05-18T13:53:23.314Z,73.20
2017-05-18T13:55:52.997Z,73.50
2017-05-18T13:58:21.906Z,76.00
2017-05-18T14:00:50.871Z,74.60
2017-05-18T14:03:19.798Z,75.40
2017-05-18T14:05:48.717Z,73.50
2017-05-18T14:08:17.637Z,74.90
2017-05-18T14:10:46.707Z,75.70
2017-05-18T14:13:16.439Z,76.80
2017-05-18T14:15:45.395Z,74.40
2017-05-18T14:18:15.043Z,74.90
2017-05-18T14:20:44.016Z,73.80
2017-05-18T14:23:13.894Z,72.90
2017-05-18T14:25:43.587Z,72.10
2017-05-18T14:28:12.523Z,71.40
2017-05-18T14:30:41.461Z,71.40
2017-05-18T14:33:10.397Z,71.10
2017-05-18T14:35:40.043Z,70.50
2017-05-18T14:38:09.024Z,69.80
2017-05-18T14:40:37.962Z,68.80
2017-05-18T14:43:06.891Z,67.80
2017-05-18T14:45:35.885Z,66.50
2017-05-18T14:48:05.546Z,66.70
2017-05-18T14:50:34.545Z,66.80
2017-05-18T14:53:03.471Z,64.80
2017-05-18T14:55:32.408Z,65.70
2017-05-18T14:58:02.832Z,61.20
2017-05-18T15:00:32.493Z,62.80
2017-05-18T15:03:01.409Z,62.50
2017-05-18T15:05:30.371Z,63.90
2017-05-18T15:07:59.327Z,61.70
2017-05-18T15:10:28.258Z,61.30
2017-05-18T15:12:57.199Z,60.80
2017-05-18T15:15:26.852Z,60.70
2017-05-18T15:17:55.782Z,61.10
2017-05-18T15:20:25.467Z,60.30
2017-05-18T15:22:54.371Z,62.40
2017-05-18T15:25:23.291Z,63.00
2017-05-18T15:27:52.956Z,61.60
2017-05-18T15:30:21.903Z,64.00
2017-05-18T15:32:51.023Z,65.00
2017-05-18T15:35:19.960Z,63.20
2017-05-18T15:37:49.658Z,61.10
2017-05-18T15:40:18.598Z,61.10
2017-05-18T15:42:47.533Z,59.80
2017-05-18T15:45:16.473Z,60.30
2017-05-18T15:47:45.466Z,60.10
2017-05-18T15:50:14.396Z,59.70
2017-05-18T15:52:43.323Z,58.70
2017-05-18T15:55:13.046Z,58.80
2017-05-18T15:57:41.959Z,59.70
2017-05-18T16:00:11.300Z,59.60
2017-05-18T16:02:40.207Z,59.60
2017-05-18T16:05:09.119Z,59.10
2017-05-18T16:07:38.162Z,60.20
2017-05-18T16:10:07.102Z,60.00
2017-05-18T16:12:36.030Z,60.00
2017-05-18T16:15:05.723Z,62.50
2017-05-18T16:17:34.643Z,61.80
2017-05-18T16:20:03.582Z,63.00
2017-05-18T16:22:32.543Z,63.50
2017-05-18T16:25:01.480Z,65.60
2017-05-18T16:27:30.370Z,67.00
2017-05-18T16:29:59.307Z,68.30
2017-05-18T16:32:28.244Z,69.40
2017-05-18T16:34:58.059Z,71.40
2017-05-18T16:37:26.973Z,71.70
2017-05-18T16:39:55.879Z,71.80
2017-05-18T16:42:25.550Z,72.40
2017-05-18T16:44:54.456Z,73.20
2017-05-18T16:47:23.383Z,72.50
2017-05-18T16:49:52.776Z,71.00
2017-05-18T16:52:21.687Z,70.00
2017-05-18T16:54:51.079Z,70.40
2017-05-18T16:57:20.515Z,70.20
2017-05-18T16:59:51.066Z,68.70
2017-05-18T17:02:20.005Z,68.20
2017-05-18T17:04:49.089Z,67.60
2017-05-18T17:07:17.995Z,66.80
2017-05-18T17:09:46.929Z,65.10
2017-05-18T17:12:16.723Z,67.40
2017-05-18T17:14:46.437Z,68.50
2017-05-18T17:17:15.368Z,67.50
2017-05-18T17:19:44.323Z,68.10
2017-05-18T17:22:13.230Z,67.70
2017-05-18T17:24:42.225Z,68.50
2017-05-18T17:27:11.166Z,67.90
2017-05-18T17:29:40.082Z,68.10
2017-05-18T17:34:38.414Z,68.90
2017-05-18T17:37:07.323Z,67.50
2017-05-18T17:39:36.242Z,68.20
2017-05-18T17:42:06.071Z,67.50
2017-05-18T17:44:35.663Z,67.30
2017-05-18T17:47:04.534Z,68.70
2017-05-18T17:49:33.470Z,68.10
2017-05-18T17:52:02.367Z,70.10
2017-05-18T17:54:31.275Z,72.20
2017-05-18T17:57:11.635Z,71.80
2017-05-18T17:59:41.279Z,71.60
2017-05-18T18:02:11.288Z,72.30
2017-05-18T18:04:46.990Z,71.50
2017-05-18T18:07:15.923Z,71.50
2017-05-18T18:09:44.907Z,72.30
2017-05-18T18:12:15.468Z,72.20
2017-05-18T18:14:44.428Z,72.30
2017-05-18T18:17:13.400Z,72.60
2017-05-18T18:19:43.220Z,72.30
2017-05-18T18:22:12.162Z,73.30
2017-05-18T18:24:41.073Z,72.50
2017-05-18T18:27:09.974Z,72.60
2017-05-18T18:29:38.911Z,72.00
2017-05-18T18:32:07.844Z,72.20
2017-05-18T18:34:36.799Z,71.80
2017-05-18T18:37:05.855Z,72.20
2017-05-18T18:39:34.800Z,72.20
2017-05-18T18:42:03.794Z,71.80
2017-05-18T18:44:32.706Z,72.00
2017-05-18T18:47:01.680Z,72.00
2017-05-18T18:49:30.590Z,71.80
2017-05-18T18:51:59.542Z,71.00
2017-05-18T18:54:29.202Z,71.40
2017-05-18T18:56:58.142Z,71.60
2017-05-18T18:59:27.066Z,71.80
2017-05-18T19:01:56.786Z,71.30
2017-05-18T19:04:27.286Z,70.60
2017-05-18T19:06:56.236Z,70.10
2017-05-18T19:09:25.207Z,70.50
2017-05-18T19:11:54.146Z,70.50
2017-05-18T19:14:23.103Z,70.60
2017-05-18T19:16:52.790Z,70.20
2017-05-18T19:19:22.436Z,70.10
2017-05-18T19:21:51.391Z,70.10
2017-05-18T19:24:21.084Z,70.30
2017-05-18T19:26:50.013Z,70.00
2017-05-18T19:29:18.954Z,70.20
2017-05-18T19:31:47.951Z,70.80
2017-05-18T19:34:16.909Z,69.80
2017-05-18T19:36:45.884Z,70.30
2017-05-18T19:39:15.646Z,70.10
2017-05-18T19:41:46.742Z,70.50
2017-05-18T19:44:15.823Z,70.70
2017-05-18T19:46:44.720Z,70.80
2017-05-18T19:49:13.707Z,70.40
2017-05-18T19:51:42.616Z,70.70
2017-05-18T19:54:12.380Z,70.70
2017-05-18T19:56:41.319Z,70.90
2017-05-18T19:59:10.292Z,70.90
2017-05-18T20:01:39.803Z,71.10
2017-05-18T20:04:08.720Z,70.70
2017-05-18T20:06:38.435Z,71.10
2017-05-18T20:09:07.347Z,70.50
2017-05-18T20:11:36.295Z,70.70
2017-05-18T20:14:06.666Z,70.90
2017-05-18T20:16:36.327Z,70.80
2017-05-18T20:19:05.270Z,70.90
2017-05-18T20:21:34.519Z,70.70
2017-05-18T20:24:03.406Z,70.90
2017-05-18T20:26:32.393Z,70.50
2017-05-18T20:29:01.303Z,70.90
2017-05-18T20:31:30.225Z,70.90
2017-05-18T20:33:59.319Z,70.90
2017-05-18T20:36:28.235Z,70.70
2017-05-18T20:38:57.141Z,70.90
2017-05-18T20:41:26.656Z,71.10
2017-05-18T20:43:55.564Z,70.60
2017-05-18T20:46:24.502Z,70.70
2017-05-18T20:48:53.455Z,70.90
2017-05-18T20:51:23.102Z,70.90
2017-05-18T20:53:52.048Z,71.30
2017-05-18T20:56:20.964Z,71.20
2017-05-18T20:58:50.612Z,71.30
2017-05-18T21:01:20.475Z,70.90
2017-05-18T21:03:49.362Z,70.80
2017-05-18T21:06:18.272Z,71.30
2017-05-18T21:08:47.225Z,70.80
2017-05-18T21:11:16.882Z,71.00
2017-05-18T21:13:45.782Z,71.20
2017-05-18T21:16:14.707Z,71.50
2017-05-18T21:18:44.388Z,71.80
2017-05-18T21:21:13.341Z,72.20
2017-05-18T21:23:42.260Z,72.30
2017-05-18T21:26:11.186Z,72.90
2017-05-18T21:28:40.873Z,72.50
2017-05-18T21:31:09.770Z,72.90
2017-05-18T21:33:38.699Z,73.50
2017-05-18T21:36:07.634Z,72.70
2017-05-18T21:38:36.544Z,73.30
2017-05-18T21:41:05.468Z,72.80
2017-05-18T21:43:35.159Z,72.40
2017-05-18T21:46:04.803Z,72.50
2017-05-18T21:48:33.723Z,72.00
2017-05-18T21:51:02.662Z,72.30
2017-05-18T21:53:32.337Z,72.40
2017-05-18T21:56:01.472Z,72.20
2017-05-18T21:58:31.111Z,72.30
2017-05-18T22:01:00.041Z,72.40
2017-05-18T22:03:29.699Z,72.40
2017-05-18T22:05:58.603Z,73.70
2017-05-18T22:08:27.517Z,73.30
2017-05-18T22:10:57.199Z,73.40
2017-05-18T22:13:26.121Z,74.00
2017-05-18T22:15:55.939Z,73.80
2017-05-18T22:18:24.877Z,73.80
2017-05-18T22:20:53.783Z,73.80
2017-05-18T22:23:22.790Z,73.80
2017-05-18T22:25:52.493Z,73.80
2017-05-18T22:28:21.414Z,73.80
2017-05-18T22:30:51.082Z,73.60
2017-05-18T22:33:19.994Z,74.00
2017-05-18T22:35:49.675Z,73.70
2017-05-18T22:38:18.574Z,73.50
2017-05-18T22:40:47.499Z,73.60
2017-05-18T22:43:17.177Z,73.50
2017-05-18T22:45:46.112Z,73.90
2017-05-18T22:48:15.025Z,74.10
2017-05-18T22:50:43.971Z,73.50
2017-05-18T22:53:13.637Z,73.80
2017-05-18T22:55:42.595Z,74.00
2017-05-18T22:58:11.529Z,74.10
2017-05-18T23:00:40.490Z,73.30
2017-05-18T23:03:09.403Z,74.00
2017-05-18T23:05:38.311Z,74.20
2017-05-18T23:08:07.246Z,74.30
2017-05-18T23:10:36.199Z,74.20
2017-05-18T23:13:05.105Z,73.90
2017-05-18T23:15:34.789Z,73.70
2017-05-18T23:18:03.720Z,73.30
2017-05-18T23:20:33.361Z,72.90
2017-05-18T23:23:02.295Z,72.80
2017-05-18T23:25:31.353Z,72.90
2017-05-18T23:28:00.287Z,72.80
2017-05-18T23:30:29.196Z,72.90
2017-05-18T23:32:58.855Z,73.70
2017-05-18T23:35:27.913Z,73.50
2017-05-18T23:37:56.826Z,73.70
2017-05-18T23:40:25.811Z,73.60
2017-05-18T23:42:54.658Z,73.60
2017-05-18T23:45:24.332Z,72.80
2017-05-18T23:47:53.458Z,73.80
2017-05-18T23:50:23.121Z,74.00
2017-05-18T23:52:52.093Z,73.80
2017-05-18T23:55:21.010Z,73.40
2017-05-18T23:57:49.937Z,73.90
